WEATHER DATA

YESTERDAY
Time Temp. Dewp. Hum. Wind dir Wind speed Wind gust Bar. 1h Prec. 24h Prec.
00:03 7.3 0.7 63 0 0.6 1022 0.0000 0.0000
00:23 5.3 -0.3 67 0 0.3 1022.2 0.0000 0.0000
00:33 4.7 -0.6 68 0 0.6 1022.3 0.0000 0.0000
00:43 4.3 -0.8 69 0 0.3 1022.1 0.0000 0.0000
00:48 4.1 -0.8 70 191 0.3 0.6 1022.2 0.0000 0.0000
00:58 3.9 -0.8 71 240 0.3 0.8 1022.2 0.0000 0.0000
01:08 3.7 -0.8 72 0 0.3 1022.3 0.0000 0.0000
01:18 3.5 -0.8 73 0 0.6 1022.5 0.0000 0.0000
01:29 3.5 -0.6 74 0 0.3 1022.3 0.0000 0.0000
01:38 3.4 -0.7 74 0 0.6 1022.1 0.0000 0.0000
01:48 3.3 -0.8 74 270 0.3 0.6 1022.1 0.0000 0.0000
01:58 3.2 -0.9 74 270 0.3 0.6 1022.2 0.0000 0.0000
02:09 3 -1 74 0 0.6 1022
02:18 2.9 -1 75 0 0.6 1022.1
02:28 2.9 -1 75 0 0.6 1022
02:39 2.8 -0.9 76 0 0.6 1021.9
02:49 2.8 -1 75 232 0.3 0.6 1021.8
02:59 2.6 -1.2 75 210 0.3 0.6 1021.7
03:09 2.6 -1.2 75 0 0.6 1021.7
03:23 2.4 -1.4 75 0 0.3 1021.6 0.0000 0.0000
03:32 2.3 -1.5 75 0 0.3 1021.7 0.0000 0.0000
03:43 2.1 -1.6 75 0 0.3 1021.7 0.0000 0.0000
03:53 2 -1.7 75 0 0.6 1021.7 0.0000 0.0000
04:03 2 -1.6 76 0 0.6 1021.7 0.0000 0.0000
04:13 2 -1.6 76 0 0.6 1021.5 0.0000 0.0000
04:23 2 -1.6 76 0 0.6 1021.6
04:39 2.1 -1.5 76 0 0.3 1021.5
04:53 2.1 -1.5 76 0 0.6 1021.5 0.0000 0.0000
05:03 2 -1.6 76 185 0.3 0.8 1021.5 0.0000 0.0000
05:12 1.9 -1.5 77 0 0.6 1021.4 0.0000 0.0000
05:23 1.9 -1.5 77 0 0.6 1021.3 0.0000 0.0000
05:33 1.8 -1.6 77 0 0.6 1021.5 0.0000 0.0000
05:43 1.9 -1.5 77 0 0.3 1021.6 0.0000 0.0000
05:53 1.9 -1.5 77 225 0.3 0.6 1021.7 0.0000 0.0000
06:03 1.8 -1.6 77 0 0.6 1021.7 0.0000 0.0000
06:13 1.7 -1.7 77 0 0.6 1021.5 0.0000 0.0000
06:23 1.6 -1.8 77 0 0.3 1021.6 0.0000 0.0000
06:34 1.6 -1.6 78 0 0.6 1021.6 0.0000 0.0000
06:35 1.6 -1.6 78 0 0.6 1021.5 0.0000 0.0000
06:46 1.7 -1.5 78 0 0.8 1021.9 0.0000 0.0000
06:56 1.7 -1.5 78 0 0.6 1021.5 0.0000 0.0000
07:06 1.7 -1.5 78 0 1.1 1021.3 0.0000 0.0000
07:15 1.7 -1.5 78 194 0.3 0.6 1021.4 0.0000 0.0000
07:26 1.7 -1.5 78 0 0.6 1021.7 0.0000 0.0000
07:36 1.6 -1.6 78 0 0.3 1021.6 0.0000 0.0000
07:46 1.5 -1.7 78 0 0.6 1021.6 0.0000 0.0000
07:56 1.4 -1.8 78 0 0.6 1021.5 0.0000 0.0000
08:06 1.4 -1.6 79 0 0.6 1021.7 0.0000 0.0000
08:16 1.4 -1.6 79 0 0.3 1021.5 0.0000 0.0000
08:26 1.5 -1.4 80 0 0.6 1021.7 0.0000 0.0000
08:37 1.6 -1.3 80 0 0.6 1021.8 0.0000 0.0000
08:47 1.9 -1 80 0 0.6 1021.7 0.0000 0.0000
08:56 2.3 -0.7 80 270 0.3 0.6 1021.8 0.0000 0.0000
09:06 2.6 -0.4 80 270 0.3 0.6 1021.9 0.0000 0.0000
09:17 3.1 -0.2 79 270 0.3 0.6 1021.7 0.0000 0.0000
09:26 3.5 0 78 270 0.3 0.8 1021.8 0.0000 0.0000
09:36 3.9 0.4 78 270 0.3 1.1 1021.8 0.0000 0.0000
09:46 4.2 0.5 77 161 0.3 1.1 1022.1 0.0000 0.0000
09:56 4.6 0.7 76 270 0.3 0.6 1021.8 0.0000 0.0000
10:06 5 0.9 75 90 0.3 1.1 1021.7 0.0000 0.0000
10:17 5.4 1.3 75 194 0.3 1.4 1021.8 0.0000 0.0000
10:28 5.8 1.5 74 90 0.3 1.7 1021.9 0.0000 0.0000
10:38 6.2 1.9 74 173 0.3 1.7 1021.8 0.0000 0.0000
10:48 6.6 2.1 73 161 0.3 1.4 1021.6 0.0000 0.0000
11:00 7.1 2.4 72 122 0.3 1.1 1021.6 0.0000 0.0000
11:10 7.6 2.9 72 125 0.6 1.4 1021.5 0.0000 0.0000
11:20 8.1 3.2 71 180 0.3 1.1 1021.5 0.0000 0.0000
11:30 8.7 3.5 70 135 0.3 1.1 1021.5 0.0000 0.0000
11:43 9.5 3.9 68 108 0.6 1.7 1021.4 0.0000 0.0000
11:53 10.1 4.3 67 225 0.3 0.8 1021.3 0.0000 0.0000
12:03 10.6 4.3 65 270 0.3 1.7 1021.2 0.0000 0.0000
12:14 11.1 4.6 64 270 0.3 1.1 1021.1 0.0000 0.0000
12:23 11.6 5 64 288 0.6 1.7 1021.3 0.0000 0.0000
12:43 12.5 5.2 61 290 0.8 1.9 1020.8
12:54 12.9 5.3 60 296 0.6 1.9 1020.7
13:03 13.1 5.5 60 270 0.6 1.4 1020.5
13:13 13.4 5.6 59 311 0.3 1.4 1020.6
13:24 13.5 5.7 59 291 0.8 1.7 1020.6
13:25 13.6 5.7 59 291 0.8 1.7 1020.6
13:35 13.8 5.7 58 286 0.8 2.8 1020.3
13:45 14 5.9 58 270 0.6 2.2 1020.3
13:54 14.2 6.1 58 270 0.6 1.9 1020.2
14:11 14.9 6.5 57 270 0.6 1.9 1019.9
14:26 15.3 6.6 56 288 0.8 2.5 1019.7 0.0000 0.0000
14:36 15.7 7 56 288 0.8 2.5 1019.6 0.0000 0.0000
14:47 16 7 55 0 0 1019.3 0.0000 0.0000
14:57 16.3 7.3 55 0 0 1019.6 0.0000 0.0000
15:07 16.5 7.4 55 0 0 1019.2 0.0000 0.0000
15:16 16.7 7.4 54 0 0 1019.1 0.0000 0.0000
15:27 16.8 7.5 54 0 0 1019.5 0.0000 0.0000
15:37 16.9 7.3 53 0 0 1019.4 0.0000 0.0000
15:47 16.9 7 52 0 0 1019.2 0.0000 0.0000
15:57 16.9 7 52 0 0 1019.1
16:07 16.9 7 52 0 0 1019
16:17 16.8 7.2 53 0 0 1019.1
16:27 16.7 7.1 53 0 0 1019.2
16:38 16.6 7 53 0 0 1018.9
16:44 16.5 6.9 53 0 0 1018.9 0.0000 0.0000
16:54 16.4 7.1 54 0 0 1019.1 0.0000 0.0000
17:14 16.2 6.9 54 0 0 1018.9 0.0000 0.0000
17:24 16 6.7 54 0 0 1018.9 0.0000 0.0000
17:34 15.8 6.5 54 0 0 1018.9 0.0000 0.0000
17:43 15.5 6.2 54 0 0 1018.9 0.0000 0.0000
17:46 15.4 6.4 55 0 0 1019.1 0.0000 0.0000
17:55 15 6.3 56 0 0 1019
18:06 14.3 5.9 57 0 0 1019.2
18:16 13.4 5.6 59 0 0 1019.2
18:25 12.6 5 60 0 0 1019.3
18:35 11.9 4.9 62 0 0 1019.4
18:46 11.2 4.4 63 0 0 1019.4
18:56 10.6 4.1 64 0 0 1019.5
19:05 10.1 4 66 0 0 1019.6
19:16 9.6 3.8 67 0 0 1019.9
19:26 9.2 3.6 68 0 0 1019.7
19:36 8.8 3.4 69 0 0 1020
19:46 8.5 3.1 69 0 0 1019.8
19:56 8.2 3.1 70 0 0 1020.1
20:06 7.9 3 71 0 0 1020
20:16 7.7 3 72 0 0 1020.1
20:30 7.4 2.9 73 0 0 1020.1
20:40 7.2 2.9 74 0 0 1020.3
20:50 7 2.7 74 0 0 1020.3
21:00 6.8 2.7 75 0 0 1020.4
21:10 6.7 2.6 75 0 0 1020.3
21:20 6.7 2.8 76 0 0 1020.5
21:31 6.6 2.7 76 0 0 1020.4
21:40 6.5 2.8 77 0 0 1020.7
21:50 6.4 2.7 77 0 0 1020.8
22:01 6.4 2.7 77 0 0 1020.7
22:11 6.4 2.7 77 0 0 1020.8
22:20 6.3 2.6 77 0 0 1021.1
22:30 6.4 2.8 78 0 0 1021.1
22:41 6.4 2.8 78 0 0 1021
22:51 6.4 2.8 78 0 0 1021.1
23:00 6.3 2.8 78 0 0 1020.9
23:11 6.3 2.8 78 0 0 1021
23:21 6.2 2.8 79 0 0 1021.3
23:30 6.1 2.7 79 0 0 1021.2
23:43 6 2.6 79 0 0 1021.3 0.0000 0.0000
23:53 6 2.8 80 0 0 1021.9 0.0000 0.0000

DAY STATISTIC

2019-02-18
TEMPERATURE
AVERAGE
7.4
HIGH
16.9
15:37
LOW
1.4
07:56
PRESSURE
AVERAGE
1020.9
HIGH
1022.5
01:18
LOW
1018.9
16:38
DEWPOINT
AVERAGE
2.2
HIGH
7.5
15:27
LOW
-1.8
06:23
HUMIDITY
AVERAGE
70
HIGH
80
08:26
LOW
52
15:47
WIND SPEED
AVERAGE
0.1
HIGH
0.8
12:43
WIND GUST
AVERAGE
0.5
HIGH
2.8
13:35
WIND DIRECTION
PREVAILING
W
24.7%
N
0.0
NE
0.0
E
3.5
SE
3.5
S
9.4
SW
5.9
W
24.7
NW
2.4
PRECIPITATION
RAIN HOUR
0.0
RAIN DAY
0.0
TEMPERATURE (°C)
LOW
1.4
HIGH
16.9
AVERAGE
7.4
PRESSURE (hpa)
LOW
1018.9
HIGH
1022.5
AVERAGE
1020.9
DEVICE